Time,TemperatureF,DewpointF,PressureIn,WindDirection,WindDirectionDegrees,WindSpeedMPH,WindSpeedGustMPH,Humidity,HourlyPrecipIn,Conditions,Clouds,dailyrainin,SolarRadiationWatts/m^2,SoftwareType,DateUTC
2013-08-14 00:04:00,56.6,33.2,29.87,NNW,347,2.0,4.0,41,0.00,,,0.00,0,WeatherCatV1.21B27,2013-08-14 07:04:00,
2013-08-14 00:09:00,56.6,33.2,29.87,NNW,347,0.0,0.0,41,0.00,,,0.00,0,WeatherCatV1.21B27,2013-08-14 07:09:00,
2013-08-14 00:14:00,56.6,33.2,29.87,NW,304,2.0,6.0,41,0.00,,,0.00,0,WeatherCatV1.21B27,2013-08-14 07:14:00,
2013-08-14 00:19:00,56.6,33.8,29.85,WNW,298,4.0,6.0,42,0.00,,,0.00,0,WeatherCatV1.21B27,2013-08-14 07:19:00,
2013-08-14 00:24:00,56.3,33.5,29.85,WNW,288,2.0,6.0,42,0.00,,,0.00,0,WeatherCatV1.21B27,2013-08-14 07:24:00,
2013-08-14 00:29:00,56.0,33.8,29.85,WNW,300,0.0,3.0,43,0.00,,,0.00,0,WeatherCatV1.21B27,2013-08-14 07:29:00,
2013-08-14 00:34:00,55.7,34.1,29.86,NW,309,5.0,8.0,44,0.00,,,0.00,0,WeatherCatV1.21B27,2013-08-14 07:34:00,
2013-08-14 00:39:00,55.7,34.1,29.86,WNW,297,6.0,7.0,44,0.00,,,0.00,0,WeatherCatV1.21B27,2013-08-14 07:39:00,
2013-08-14 00:44:00,55.7,34.1,29.86,WNW,299,6.0,9.0,44,0.00,,,0.00,0,WeatherCatV1.21B27,2013-08-14 07:44:00,
2013-08-14 00:49:00,55.7,34.1,29.86,NW,310,5.0,9.0,44,0.00,,,0.00,0,WeatherCatV1.21B27,2013-08-14 07:49:00,
2013-08-14 00:54:00,55.7,34.1,29.86,NW,304,3.0,6.0,44,0.00,,,0.00,0,WeatherCatV1.21B27,2013-08-14 07:54:00,
2013-08-14 00:59:00,55.6,34.0,29.86,WNW,298,5.0,6.0,44,0.00,,,0.00,0,WeatherCatV1.21B27,2013-08-14 07:59:00,
2013-08-14 01:04:00,55.4,33.8,29.85,WNW,288,3.0,6.0,44,0.00,,,0.00,0,WeatherCatV1.21B27,2013-08-14 08:04:00,
2013-08-14 01:09:00,55.3,33.8,29.85,WNW,299,6.0,10.0,44,0.00,,,0.00,0,WeatherCatV1.21B27,2013-08-14 08:09:00,
2013-08-14 01:14:00,55.3,33.8,29.85,WNW,293,2.0,5.0,44,0.00,,,0.00,0,WeatherCatV1.21B27,2013-08-14 08:14:00,
2013-08-14 01:19:00,55.0,33.5,29.85,NW,308,0.0,3.0,44,0.00,,,0.00,0,WeatherCatV1.21B27,2013-08-14 08:19:00,
2013-08-14 01:24:00,55.0,34.0,29.85,NW,308,4.0,4.0,45,0.00,,,0.00,0,WeatherCatV1.21B27,2013-08-14 08:24:00,
2013-08-14 01:29:00,54.8,35.0,29.85,NW,310,2.0,4.0,47,0.00,,,0.00,0,WeatherCatV1.21B27,2013-08-14 08:29:00,
2013-08-14 01:34:00,54.8,35.0,29.85,NW,310,0.0,3.0,47,0.00,,,0.00,0,WeatherCatV1.21B27,2013-08-14 08:34:00,
2013-08-14 01:39:00,54.8,35.0,29.85,NW,310,0.0,0.0,47,0.00,,,0.00,0,WeatherCatV1.21B27,2013-08-14 08:39:00,
2013-08-14 01:44:00,54.8,33.9,29.85,NW,310,0.0,1.0,45,0.00,,,0.00,0,WeatherCatV1.21B27,2013-08-14 08:44:00,
2013-08-14 01:49:00,55.0,33.5,29.85,NW,310,0.0,0.0,44,0.00,,,0.00,0,WeatherCatV1.21B27,2013-08-14 08:49:00,
2013-08-14 01:54:00,55.1,31.8,29.85,NW,310,0.0,0.0,41,0.00,,,0.00,0,WeatherCatV1.21B27,2013-08-14 08:54:00,
2013-08-14 01:59:00,55.1,28.0,29.85,NW,310,0.0,0.0,35,0.00,,,0.00,0,WeatherCatV1.21B27,2013-08-14 08:59:00,
2013-08-14 02:04:00,56.0,20.7,29.85,NW,311,0.0,3.0,25,0.00,,,0.00,0,WeatherCatV1.21B27,2013-08-14 09:04:00,
2013-08-14 02:09:00,56.6,18.2,29.85,NNW,332,5.0,5.0,22,0.00,,,0.00,0,WeatherCatV1.21B27,2013-08-14 09:09:00,
2013-08-14 02:14:00,57.6,18.0,29.85,NNW,346,0.0,3.0,21,0.00,,,0.00,0,WeatherCatV1.21B27,2013-08-14 09:14:00,
2013-08-14 02:19:00,58.4,17.5,29.83,NNW,347,0.0,0.0,20,0.00,,,0.00,0,WeatherCatV1.21B27,2013-08-14 09:19:00,
2013-08-14 02:24:00,58.6,17.7,29.83,NNW,345,0.0,4.0,20,0.00,,,0.00,0,WeatherCatV1.21B27,2013-08-14 09:24:00,
2013-08-14 02:29:00,58.6,17.7,29.83,NNW,345,0.0,3.0,20,0.00,,,0.00,0,WeatherCatV1.21B27,2013-08-14 09:29:00,
2013-08-14 02:34:00,58.7,16.6,29.83,NNW,347,0.0,1.0,19,0.00,,,0.00,0,WeatherCatV1.21B27,2013-08-14 09:34:00,
2013-08-14 02:39:00,58.7,16.6,29.83,NW,323,0.0,5.0,19,0.00,,,0.00,0,WeatherCatV1.21B27,2013-08-14 09:39:00,
2013-08-14 02:44:00,58.6,15.2,29.83,NW,324,0.0,1.0,18,0.00,,,0.00,0,WeatherCatV1.21B27,2013-08-14 09:44:00,
2013-08-14 02:49:00,58.7,15.3,29.83,NNW,336,2.0,4.0,18,0.00,,,0.00,0,WeatherCatV1.21B27,2013-08-14 09:49:00,
2013-08-14 02:54:00,58.9,15.5,29.83,NW,324,0.0,5.0,18,0.00,,,0.00,0,WeatherCatV1.21B27,2013-08-14 09:54:00,
2013-08-14 02:59:00,58.9,15.5,29.83,NW,316,0.0,2.0,18,0.00,,,0.00,0,WeatherCatV1.21B27,2013-08-14 09:59:00,
2013-08-14 03:04:00,58.9,15.5,29.83,NW,313,1.0,4.0,18,0.00,,,0.00,0,WeatherCatV1.21B27,2013-08-14 10:04:00,
2013-08-14 03:09:00,58.7,16.6,29.83,NW,313,3.0,3.0,19,0.00,,,0.00,0,WeatherCatV1.21B27,2013-08-14 10:09:00,
2013-08-14 03:14:00,58.7,17.8,29.83,NW,313,0.0,1.0,20,0.00,,,0.00,0,WeatherCatV1.21B27,2013-08-14 10:14:00,
2013-08-14 03:19:00,58.6,17.7,29.81,NW,313,0.0,1.0,20,0.00,,,0.00,0,WeatherCatV1.21B27,2013-08-14 10:19:00,
2013-08-14 03:24:00,58.4,18.6,29.81,NW,312,0.0,0.0,21,0.00,,,0.00,0,WeatherCatV1.21B27,2013-08-14 10:24:00,
2013-08-14 03:29:00,58.1,16.1,29.83,NW,312,1.0,4.0,19,0.00,,,0.00,0,WeatherCatV1.21B27,2013-08-14 10:29:00,
2013-08-14 03:34:00,58.0,16.0,29.83,NW,312,0.0,0.0,19,0.00,,,0.00,0,WeatherCatV1.21B27,2013-08-14 10:34:00,
2013-08-14 03:39:00,57.6,14.4,29.83,NW,312,2.0,3.0,18,0.00,,,0.00,0,WeatherCatV1.21B27,2013-08-14 10:39:00,
2013-08-14 03:44:00,57.5,14.3,29.83,NW,312,0.0,2.0,18,0.00,,,0.00,0,WeatherCatV1.21B27,2013-08-14 10:44:00,
2013-08-14 03:49:00,57.3,14.2,29.82,NW,312,0.0,1.0,18,0.00,,,0.00,0,WeatherCatV1.21B27,2013-08-14 10:49:00,
2013-08-14 03:54:00,57.2,14.1,29.82,NW,312,0.0,3.0,18,0.00,,,0.00,0,WeatherCatV1.21B27,2013-08-14 10:54:00,
2013-08-14 03:59:00,57.2,12.8,29.82,NW,312,2.0,2.0,17,0.00,,,0.00,0,WeatherCatV1.21B27,2013-08-14 10:59:00,
2013-08-14 04:04:00,57.2,12.8,29.82,NW,312,0.0,0.0,17,0.00,,,0.00,0,WeatherCatV1.21B27,2013-08-14 11:04:00,
2013-08-14 04:09:00,57.3,14.2,29.82,WNW,283,4.0,6.0,18,0.00,,,0.00,0,WeatherCatV1.21B27,2013-08-14 11:09:00,
2013-08-14 04:14:00,57.6,13.1,29.82,NW,305,0.0,6.0,17,0.00,,,0.00,0,WeatherCatV1.21B27,2013-08-14 11:14:00,
2013-08-14 04:19:00,57.8,14.6,29.82,WNW,293,3.0,4.0,18,0.00,,,0.00,0,WeatherCatV1.21B27,2013-08-14 11:19:00,
2013-08-14 04:24:00,57.8,17.0,29.82,WNW,293,3.0,4.0,20,0.00,,,0.00,0,WeatherCatV1.21B27,2013-08-14 11:24:00,
2013-08-14 04:29:00,57.5,20.0,29.82,WNW,293,5.0,5.0,23,0.00,,,0.00,0,WeatherCatV1.21B27,2013-08-14 11:29:00,
2013-08-14 04:34:00,57.0,19.6,29.82,WNW,293,2.0,4.0,23,0.00,,,0.00,0,WeatherCatV1.21B27,2013-08-14 11:34:00,
2013-08-14 04:39:00,56.9,20.5,29.82,WNW,293,2.0,4.0,24,0.00,,,0.00,0,WeatherCatV1.21B27,2013-08-14 11:39:00,
2013-08-14 04:44:00,56.7,20.3,29.82,WNW,293,1.0,3.0,24,0.00,,,0.00,0,WeatherCatV1.21B27,2013-08-14 11:44:00,
2013-08-14 04:49:00,56.7,21.3,29.83,WNW,293,2.0,3.0,25,0.00,,,0.00,0,WeatherCatV1.21B27,2013-08-14 11:49:00,
2013-08-14 04:54:00,56.7,21.3,29.83,WNW,293,0.0,3.0,25,0.00,,,0.00,0,WeatherCatV1.21B27,2013-08-14 11:54:00,
2013-08-14 04:59:00,56.7,21.3,29.83,WNW,293,0.0,3.0,25,0.00,,,0.00,0,WeatherCatV1.21B27,2013-08-14 11:59:00,
2013-08-14 05:04:00,56.7,21.3,29.82,WNW,288,1.0,2.0,25,0.00,,,0.00,0,WeatherCatV1.21B27,2013-08-14 12:04:00,
2013-08-14 05:09:00,56.9,21.5,29.82,WNW,288,3.0,4.0,25,0.00,,,0.00,0,WeatherCatV1.21B27,2013-08-14 12:09:00,
2013-08-14 05:14:00,57.0,19.6,29.82,WNW,293,4.0,5.0,23,0.00,,,0.00,0,WeatherCatV1.21B27,2013-08-14 12:14:00,
2013-08-14 05:19:00,57.2,21.7,29.84,WNW,288,0.0,3.0,25,0.00,,,0.00,0,WeatherCatV1.21B27,2013-08-14 12:19:00,
2013-08-14 05:24:00,57.2,20.8,29.84,WNW,288,3.0,5.0,24,0.00,,,0.00,0,WeatherCatV1.21B27,2013-08-14 12:24:00,
2013-08-14 05:29:00,57.0,21.5,29.83,WNW,288,1.0,4.0,25,0.00,,,0.00,0,WeatherCatV1.21B27,2013-08-14 12:29:00,
2013-08-14 05:34:00,57.0,22.5,29.83,WNW,288,3.0,4.0,26,0.00,,,0.00,0,WeatherCatV1.21B27,2013-08-14 12:34:00,
2013-08-14 05:39:00,57.0,22.5,29.83,WNW,288,1.0,3.0,26,0.00,,,0.00,0,WeatherCatV1.21B27,2013-08-14 12:39:00,
2013-08-14 05:44:00,56.9,21.5,29.83,WNW,288,0.0,1.0,25,0.00,,,0.00,0,WeatherCatV1.21B27,2013-08-14 12:44:00,
2013-08-14 05:49:00,56.9,22.4,29.84,WNW,288,0.0,0.0,26,0.00,,,0.00,0,WeatherCatV1.21B27,2013-08-14 12:49:00,
2013-08-14 05:54:00,56.7,22.2,29.84,WNW,288,1.0,3.0,26,0.00,,,0.00,0,WeatherCatV1.21B27,2013-08-14 12:54:00,
2013-08-14 05:59:00,56.5,22.9,29.85,WNW,288,1.0,1.0,27,0.00,,,0.00,0,WeatherCatV1.21B27,2013-08-14 12:59:00,
2013-08-14 06:04:00,56.5,23.8,29.85,WNW,288,2.0,2.0,28,0.00,,,0.00,0,WeatherCatV1.21B27,2013-08-14 13:04:00,
2013-08-14 06:09:00,56.3,23.6,29.85,WNW,288,3.0,4.0,28,0.00,,,0.00,0,WeatherCatV1.21B27,2013-08-14 13:09:00,
2013-08-14 06:14:00,56.3,23.6,29.85,WNW,288,0.0,3.0,28,0.00,,,0.00,5,WeatherCatV1.21B27,2013-08-14 13:14:00,
2013-08-14 06:19:00,56.3,21.9,29.87,WNW,288,3.0,4.0,26,0.00,,,0.00,7,WeatherCatV1.21B27,2013-08-14 13:19:00,
2013-08-14 06:24:00,56.3,21.9,29.87,WNW,288,0.0,0.0,26,0.00,,,0.00,11,WeatherCatV1.21B27,2013-08-14 13:24:00,
2013-08-14 06:29:00,56.3,21.9,29.87,West,277,0.0,0.0,26,0.00,,,0.00,12,WeatherCatV1.21B27,2013-08-14 13:29:00,
2013-08-14 06:34:00,56.3,21.9,29.87,West,276,0.0,0.0,26,0.00,,,0.00,16,WeatherCatV1.21B27,2013-08-14 13:34:00,
2013-08-14 06:39:00,56.5,22.0,29.87,West,278,0.0,0.0,26,0.00,,,0.00,21,WeatherCatV1.21B27,2013-08-14 13:39:00,
2013-08-14 06:44:00,56.5,21.1,29.87,WNW,283,1.0,2.0,25,0.00,,,0.00,28,WeatherCatV1.21B27,2013-08-14 13:44:00,
2013-08-14 06:49:00,56.7,21.3,29.86,WNW,283,0.0,3.0,25,0.00,,,0.00,39,WeatherCatV1.21B27,2013-08-14 13:49:00,
2013-08-14 06:54:00,57.0,22.5,29.86,WNW,283,1.0,3.0,26,0.00,,,0.00,47,WeatherCatV1.21B27,2013-08-14 13:54:00,
2013-08-14 06:59:00,57.2,23.5,29.86,WNW,283,2.0,3.0,27,0.00,,,0.00,60,WeatherCatV1.21B27,2013-08-14 13:59:00,
2013-08-14 07:04:00,57.5,23.8,29.87,WNW,283,1.0,3.0,27,0.00,,,0.00,74,WeatherCatV1.21B27,2013-08-14 14:04:00,
2013-08-14 07:09:00,57.6,23.0,29.87,WNW,283,2.0,3.0,26,0.00,,,0.00,90,WeatherCatV1.21B27,2013-08-14 14:09:00,
2013-08-14 07:14:00,57.8,23.1,29.87,WNW,283,0.0,2.0,26,0.00,,,0.00,104,WeatherCatV1.21B27,2013-08-14 14:14:00,
2013-08-14 07:19:00,58.0,22.4,29.90,WNW,283,0.0,1.0,25,0.00,,,0.00,118,WeatherCatV1.21B27,2013-08-14 14:19:00,
2013-08-14 07:24:00,58.1,20.5,29.90,WNW,283,0.0,3.0,23,0.00,,,0.00,134,WeatherCatV1.21B27,2013-08-14 14:24:00,
2013-08-14 07:29:00,58.3,21.7,29.90,WNW,283,0.0,1.0,24,0.00,,,0.00,144,WeatherCatV1.21B27,2013-08-14 14:29:00,
2013-08-14 07:34:00,58.4,21.8,29.90,WNW,283,0.0,1.0,24,0.00,,,0.00,160,WeatherCatV1.21B27,2013-08-14 14:34:00,
2013-08-14 07:39:00,58.7,22.0,29.90,WNW,283,0.0,2.0,24,0.00,,,0.00,176,WeatherCatV1.21B27,2013-08-14 14:39:00,
2013-08-14 07:44:00,58.9,21.2,29.90,West,278,1.0,3.0,23,0.00,,,0.00,192,WeatherCatV1.21B27,2013-08-14 14:44:00,
2013-08-14 07:49:00,59.0,21.3,29.89,West,279,2.0,2.0,23,0.00,,,0.00,207,WeatherCatV1.21B27,2013-08-14 14:49:00,
2013-08-14 07:54:00,59.2,21.4,29.89,West,279,0.0,0.0,23,0.00,,,0.00,225,WeatherCatV1.21B27,2013-08-14 14:54:00,
2013-08-14 07:59:00,59.3,20.5,29.90,West,279,0.0,0.0,22,0.00,,,0.00,239,WeatherCatV1.21B27,2013-08-14 14:59:00,
2013-08-14 08:04:00,59.5,19.5,29.90,West,279,0.0,0.0,21,0.00,,,0.00,255,WeatherCatV1.21B27,2013-08-14 15:04:00,
2013-08-14 08:09:00,59.8,19.8,29.90,West,279,0.0,0.0,21,0.00,,,0.00,260,WeatherCatV1.21B27,2013-08-14 15:09:00,
2013-08-14 08:14:00,59.9,18.7,29.90,West,279,0.0,0.0,20,0.00,,,0.00,287,WeatherCatV1.21B27,2013-08-14 15:14:00,
2013-08-14 08:19:00,60.2,16.5,29.93,West,279,0.0,1.0,18,0.00,,,0.00,302,WeatherCatV1.21B27,2013-08-14 15:19:00,
2013-08-14 08:24:00,60.5,18.0,29.93,West,279,0.0,1.0,19,0.00,,,0.00,318,WeatherCatV1.21B27,2013-08-14 15:24:00,
2013-08-14 08:29:00,60.9,17.1,29.93,West,279,0.0,1.0,18,0.00,,,0.00,336,WeatherCatV1.21B27,2013-08-14 15:29:00,
2013-08-14 08:34:00,61.0,11.5,29.92,West,279,0.0,2.0,14,0.00,,,0.00,352,WeatherCatV1.21B27,2013-08-14 15:34:00,
2013-08-14 08:39:00,61.3,16.1,29.92,West,279,2.0,3.0,17,0.00,,,0.00,366,WeatherCatV1.21B27,2013-08-14 15:39:00,
2013-08-14 08:44:00,61.6,15.0,29.92,West,279,0.0,3.0,16,0.00,,,0.00,385,WeatherCatV1.21B27,2013-08-14 15:44:00,
2013-08-14 08:49:00,62.0,13.8,29.92,West,279,0.0,3.0,15,0.00,,,0.00,403,WeatherCatV1.21B27,2013-08-14 15:49:00,
2013-08-14 08:54:00,62.3,15.6,29.92,West,279,1.0,3.0,16,0.00,,,0.00,420,WeatherCatV1.21B27,2013-08-14 15:54:00,
2013-08-14 08:59:00,62.6,15.8,29.92,WNW,283,2.0,2.0,16,0.00,,,0.00,434,WeatherCatV1.21B27,2013-08-14 15:59:00,
2013-08-14 09:05:00,62.9,11.3,29.91,WNW,283,4.0,4.0,13,0.00,,,0.00,454,WeatherCatV1.21B27,2013-08-14 16:05:00,
2013-08-14 09:10:00,63.2,11.6,29.91,WNW,283,0.0,4.0,13,0.00,,,0.00,471,WeatherCatV1.21B27,2013-08-14 16:10:00,
2013-08-14 09:16:00,63.5,19.2,29.92,WNW,283,2.0,3.0,18,0.00,,,0.00,490,WeatherCatV1.21B27,2013-08-14 16:16:00,
2013-08-14 09:21:00,63.7,13.6,29.92,WNW,293,0.0,1.0,14,0.00,,,0.00,504,WeatherCatV1.21B27,2013-08-14 16:21:00,
2013-08-14 09:26:00,64.0,15.4,29.92,WNW,293,0.0,1.0,15,0.00,,,0.00,513,WeatherCatV1.21B27,2013-08-14 16:26:00,
2013-08-14 09:32:00,64.3,15.7,29.91,WNW,293,0.0,3.0,15,0.00,,,0.00,536,WeatherCatV1.21B27,2013-08-14 16:32:00,
2013-08-14 09:37:00,64.7,20.2,29.91,WNW,293,0.0,1.0,18,0.00,,,0.00,550,WeatherCatV1.21B27,2013-08-14 16:37:00,
2013-08-14 09:42:00,64.8,22.8,29.91,WNW,293,0.0,1.0,20,0.00,,,0.00,564,WeatherCatV1.21B27,2013-08-14 16:42:00,
2013-08-14 09:47:00,65.2,23.1,29.91,WNW,293,0.0,3.0,20,0.00,,,0.00,580,WeatherCatV1.21B27,2013-08-14 16:47:00,
2013-08-14 09:52:00,65.5,23.4,29.91,WNW,293,0.0,0.0,20,0.00,,,0.00,594,WeatherCatV1.21B27,2013-08-14 16:52:00,
2013-08-14 09:57:00,65.8,24.8,29.91,WNW,288,0.0,1.0,21,0.00,,,0.00,608,WeatherCatV1.21B27,2013-08-14 16:57:00,
2013-08-14 10:02:00,66.0,26.1,29.89,WNW,293,0.0,3.0,22,0.00,,,0.00,621,WeatherCatV1.21B27,2013-08-14 17:02:00,
2013-08-14 10:07:00,66.3,27.4,29.89,WNW,293,0.0,0.0,23,0.00,,,0.00,635,WeatherCatV1.21B27,2013-08-14 17:07:00,
2013-08-14 10:12:00,66.6,25.5,29.89,ENE,69,0.0,3.0,21,0.00,,,0.00,645,WeatherCatV1.21B27,2013-08-14 17:12:00,
2013-08-14 10:17:00,67.9,24.1,29.90,ESE,118,0.0,3.0,19,0.00,,,0.00,663,WeatherCatV1.21B27,2013-08-14 17:17:00,
2013-08-14 10:22:00,69.3,24.0,29.90,SE,126,0.0,1.0,18,0.00,,,0.00,675,WeatherCatV1.21B27,2013-08-14 17:22:00,
2013-08-14 10:27:00,70.8,23.8,29.90,East,87,0.0,4.0,17,0.00,,,0.00,693,WeatherCatV1.21B27,2013-08-14 17:27:00,
2013-08-14 10:32:00,72.3,23.6,29.87,ENE,65,1.0,4.0,16,0.00,,,0.00,705,WeatherCatV1.21B27,2013-08-14 17:32:00,
2013-08-14 10:38:00,73.3,22.9,29.87,ENE,70,0.0,5.0,15,0.00,,,0.00,717,WeatherCatV1.21B27,2013-08-14 17:38:00,
2013-08-14 10:43:00,73.9,23.3,29.87,SE,127,1.0,5.0,15,0.00,,,0.00,729,WeatherCatV1.21B27,2013-08-14 17:43:00,
2013-08-14 10:48:00,74.4,23.7,29.85,ENE,65,0.0,5.0,15,0.00,,,0.00,742,WeatherCatV1.21B27,2013-08-14 17:48:00,
2013-08-14 10:53:00,74.9,24.1,29.85,ESE,114,4.0,5.0,15,0.00,,,0.00,754,WeatherCatV1.21B27,2013-08-14 17:53:00,
2013-08-14 10:58:00,75.4,22.9,29.85,ENE,61,0.0,1.0,14,0.00,,,0.00,766,WeatherCatV1.21B27,2013-08-14 17:58:00,
2013-08-14 11:03:00,76.0,23.4,29.83,SE,145,0.0,12.0,14,0.00,,,0.00,775,WeatherCatV1.21B27,2013-08-14 18:03:00,
2013-08-14 11:09:00,76.8,24.0,29.83,East,81,0.0,5.0,14,0.00,,,0.00,789,WeatherCatV1.21B27,2013-08-14 18:09:00,
2013-08-14 11:16:00,76.8,22.2,29.84,ESE,111,0.0,1.0,13,0.00,,,0.00,802,WeatherCatV1.21B27,2013-08-14 18:16:00,
2013-08-14 11:22:00,77.2,22.5,29.84,ESE,105,1.0,1.0,13,0.00,,,0.00,809,WeatherCatV1.21B27,2013-08-14 18:22:00,
2013-08-14 11:28:00,76.5,29.8,29.84,NE,51,0.0,3.0,18,0.00,,,0.00,819,WeatherCatV1.21B27,2013-08-14 18:28:00,
2013-08-14 11:33:00,75.3,30.2,29.84,NNW,343,4.0,4.0,19,0.00,,,0.00,826,WeatherCatV1.21B27,2013-08-14 18:33:00,
2013-08-14 11:39:00,74.4,29.5,29.84,WNW,299,0.0,6.0,19,0.00,,,0.00,838,WeatherCatV1.21B27,2013-08-14 18:39:00,
2013-08-14 11:44:00,73.7,30.1,29.84,WNW,293,4.0,5.0,20,0.00,,,0.00,842,WeatherCatV1.21B27,2013-08-14 18:44:00,
2013-08-14 11:49:00,73.0,25.6,29.86,WNW,283,3.0,9.0,17,0.00,,,0.00,854,WeatherCatV1.21B27,2013-08-14 18:49:00,
2013-08-14 11:54:00,72.3,23.6,29.86,West,273,6.0,7.0,16,0.00,,,0.00,863,WeatherCatV1.21B27,2013-08-14 18:54:00,
2013-08-14 12:00:00,72.0,20.2,29.88,WNW,293,2.0,5.0,14,0.00,,,0.00,870,WeatherCatV1.21B27,2013-08-14 19:00:00,
2013-08-14 12:05:00,72.1,18.5,29.88,WNW,297,7.0,10.0,13,0.00,,,0.00,888,WeatherCatV1.21B27,2013-08-14 19:05:00,
2013-08-14 12:12:00,72.5,15.0,29.88,NW,320,2.0,11.0,11,0.00,,,0.00,902,WeatherCatV1.21B27,2013-08-14 19:12:00,
2013-08-14 12:17:00,73.0,13.2,29.88,NNW,328,2.0,6.0,10,0.00,,,0.00,905,WeatherCatV1.21B27,2013-08-14 19:17:00,
2013-08-14 12:22:00,73.2,13.4,29.88,WNW,293,3.0,7.0,10,0.00,,,0.00,909,WeatherCatV1.21B27,2013-08-14 19:22:00,
2013-08-14 12:27:00,72.8,13.1,29.88,WNW,298,6.0,12.0,10,0.00,,,0.00,911,WeatherCatV1.21B27,2013-08-14 19:27:00,
2013-08-14 12:32:00,73.0,15.4,29.88,West,269,10.0,11.0,11,0.00,,,0.00,914,WeatherCatV1.21B27,2013-08-14 19:32:00,
2013-08-14 12:38:00,73.0,19.3,29.88,WNW,288,4.0,7.0,13,0.00,,,0.00,916,WeatherCatV1.21B27,2013-08-14 19:38:00,
2013-08-14 12:43:00,73.2,21.1,29.88,WNW,283,9.0,11.0,14,0.00,,,0.00,918,WeatherCatV1.21B27,2013-08-14 19:43:00,
2013-08-14 12:48:00,72.8,20.8,29.88,NW,316,5.0,11.0,14,0.00,,,0.00,919,WeatherCatV1.21B27,2013-08-14 19:48:00,
2013-08-14 12:53:00,72.5,22.2,29.88,WNW,283,5.0,13.0,15,0.00,,,0.00,923,WeatherCatV1.21B27,2013-08-14 19:53:00,
2013-08-14 12:58:00,72.3,18.7,29.88,NW,307,5.0,12.0,13,0.00,,,0.00,925,WeatherCatV1.21B27,2013-08-14 19:58:00,
2013-08-14 13:03:00,72.3,20.4,29.87,WNW,297,6.0,10.0,14,0.00,,,0.00,925,WeatherCatV1.21B27,2013-08-14 20:03:00,
2013-08-14 13:09:00,72.8,22.5,29.87,West,273,0.0,13.0,15,0.00,,,0.00,925,WeatherCatV1.21B27,2013-08-14 20:09:00,
2013-08-14 13:14:00,72.8,20.8,29.87,NW,306,5.0,11.0,14,0.00,,,0.00,686,WeatherCatV1.21B27,2013-08-14 20:14:00,
2013-08-14 13:19:00,73.0,21.0,29.86,WNW,288,9.0,13.0,14,0.00,,,0.00,926,WeatherCatV1.21B27,2013-08-14 20:19:00,
2013-08-14 13:24:00,73.2,21.1,29.86,West,270,6.0,7.0,14,0.00,,,0.00,926,WeatherCatV1.21B27,2013-08-14 20:24:00,
2013-08-14 13:29:00,73.3,19.5,29.86,WSW,239,7.0,11.0,13,0.00,,,0.00,925,WeatherCatV1.21B27,2013-08-14 20:29:00,
2013-08-14 13:34:00,73.5,21.4,29.86,NNW,337,5.0,9.0,14,0.00,,,0.00,925,WeatherCatV1.21B27,2013-08-14 20:34:00,
2013-08-14 13:40:00,73.7,19.8,29.86,WNW,300,9.0,9.0,13,0.00,,,0.00,921,WeatherCatV1.21B27,2013-08-14 20:40:00,
2013-08-14 13:46:00,73.9,20.0,29.86,NW,305,5.0,11.0,13,0.00,,,0.00,916,WeatherCatV1.21B27,2013-08-14 20:46:00,
2013-08-14 13:51:00,74.4,20.4,29.86,WNW,293,3.0,13.0,13,0.00,,,0.00,916,WeatherCatV1.21B27,2013-08-14 20:51:00,
2013-08-14 13:56:00,74.9,22.5,29.86,WNW,298,5.0,12.0,14,0.00,,,0.00,914,WeatherCatV1.21B27,2013-08-14 20:56:00,
2013-08-14 14:01:00,75.6,23.0,29.84,NW,316,9.0,10.0,14,0.00,,,0.00,912,WeatherCatV1.21B27,2013-08-14 21:01:00,
2013-08-14 14:07:00,76.3,21.8,29.84,West,276,5.0,10.0,13,0.00,,,0.00,911,WeatherCatV1.21B27,2013-08-14 21:07:00,
2013-08-14 14:12:00,76.7,22.2,29.84,South,181,3.0,10.0,13,0.00,,,0.00,902,WeatherCatV1.21B27,2013-08-14 21:12:00,
2013-08-14 14:17:00,76.8,22.2,29.80,WNW,299,6.0,15.0,13,0.00,,,0.00,896,WeatherCatV1.21B27,2013-08-14 21:17:00,
2013-08-14 14:22:00,76.3,20.0,29.80,West,260,5.0,14.0,12,0.00,,,0.00,891,WeatherCatV1.21B27,2013-08-14 21:22:00,
2013-08-14 14:27:00,75.8,21.5,29.80,WNW,293,9.0,14.0,13,0.00,,,0.00,886,WeatherCatV1.21B27,2013-08-14 21:27:00,
2013-08-14 14:32:00,75.4,21.1,29.81,WNW,283,11.0,16.0,13,0.00,,,0.00,879,WeatherCatV1.21B27,2013-08-14 21:32:00,
2013-08-14 14:37:00,75.1,22.6,29.81,SSW,199,7.0,18.0,14,0.00,,,0.00,872,WeatherCatV1.21B27,2013-08-14 21:37:00,
2013-08-14 14:42:00,75.1,20.9,29.81,WNW,288,4.0,18.0,13,0.00,,,0.00,867,WeatherCatV1.21B27,2013-08-14 21:42:00,
2013-08-14 14:47:00,75.3,22.8,29.80,WNW,293,6.0,6.0,14,0.00,,,0.00,860,WeatherCatV1.21B27,2013-08-14 21:47:00,
2013-08-14 14:52:00,75.8,23.2,29.80,West,259,7.0,15.0,14,0.00,,,0.00,851,WeatherCatV1.21B27,2013-08-14 21:52:00,
2013-08-14 14:57:00,75.6,23.0,29.80,NW,310,9.0,12.0,14,0.00,,,0.00,842,WeatherCatV1.21B27,2013-08-14 21:57:00,
2013-08-14 15:02:00,75.4,22.9,29.81,WNW,293,5.0,13.0,14,0.00,,,0.00,835,WeatherCatV1.21B27,2013-08-14 22:02:00,
2013-08-14 15:07:00,75.4,24.5,29.81,SW,234,10.0,16.0,15,0.00,,,0.00,823,WeatherCatV1.21B27,2013-08-14 22:07:00,
2013-08-14 15:12:00,75.8,23.2,29.81,West,277,5.0,16.0,14,0.00,,,0.00,817,WeatherCatV1.21B27,2013-08-14 22:12:00,
2013-08-14 15:17:00,75.6,24.7,29.81,West,265,11.0,21.0,15,0.00,,,0.00,805,WeatherCatV1.21B27,2013-08-14 22:17:00,
2013-08-14 15:22:00,75.3,26.0,29.81,NW,311,9.0,13.0,16,0.00,,,0.00,795,WeatherCatV1.21B27,2013-08-14 22:22:00,
2013-08-14 15:27:00,75.4,24.5,29.81,West,261,12.0,16.0,15,0.00,,,0.00,786,WeatherCatV1.21B27,2013-08-14 22:27:00,
2013-08-14 15:33:00,75.1,25.8,29.81,WNW,293,10.0,14.0,16,0.00,,,0.00,772,WeatherCatV1.21B27,2013-08-14 22:33:00,
2013-08-14 15:38:00,74.9,24.1,29.81,NW,316,19.0,19.0,15,0.00,,,0.00,763,WeatherCatV1.21B27,2013-08-14 22:38:00,
2013-08-14 15:43:00,74.6,25.4,29.81,NW,312,14.0,17.0,16,0.00,,,0.00,751,WeatherCatV1.21B27,2013-08-14 22:43:00,
2013-08-14 15:48:00,74.6,25.4,29.80,North,3,11.0,13.0,16,0.00,,,0.00,738,WeatherCatV1.21B27,2013-08-14 22:48:00,
2013-08-14 15:53:00,74.6,25.4,29.80,WNW,283,6.0,15.0,16,0.00,,,0.00,728,WeatherCatV1.21B27,2013-08-14 22:53:00,
2013-08-14 15:58:00,73.7,26.2,29.80,WNW,297,17.0,18.0,17,0.00,,,0.00,717,WeatherCatV1.21B27,2013-08-14 22:58:00,
2013-08-14 16:03:00,73.7,26.2,29.82,WNW,301,5.0,17.0,17,0.00,,,0.00,703,WeatherCatV1.21B27,2013-08-14 23:03:00,
2013-08-14 16:09:00,74.4,28.1,29.82,WNW,293,5.0,13.0,18,0.00,,,0.00,687,WeatherCatV1.21B27,2013-08-14 23:09:00,
2013-08-14 16:14:00,74.7,28.4,29.80,WNW,293,11.0,21.0,18,0.00,,,0.00,673,WeatherCatV1.21B27,2013-08-14 23:14:00,
2013-08-14 16:20:00,74.4,26.7,29.80,NW,307,11.0,24.0,17,0.00,,,0.00,659,WeatherCatV1.21B27,2013-08-14 23:20:00,
2013-08-14 16:25:00,74.2,28.0,29.80,West,274,7.0,16.0,18,0.00,,,0.00,645,WeatherCatV1.21B27,2013-08-14 23:25:00,
2013-08-14 16:30:00,74.2,28.0,29.80,WNW,293,15.0,20.0,18,0.00,,,0.00,629,WeatherCatV1.21B27,2013-08-14 23:30:00,
2013-08-14 16:35:00,74.2,28.0,29.80,WSW,247,7.0,19.0,18,0.00,,,0.00,615,WeatherCatV1.21B27,2013-08-14 23:35:00,
2013-08-14 16:40:00,74.0,29.1,29.80,NW,318,18.0,18.0,19,0.00,,,0.00,601,WeatherCatV1.21B27,2013-08-14 23:40:00,
2013-08-14 16:45:00,74.0,29.1,29.80,WNW,301,14.0,19.0,19,0.00,,,0.00,591,WeatherCatV1.21B27,2013-08-14 23:45:00,
2013-08-14 16:50:00,73.5,28.7,29.80,NW,314,12.0,22.0,19,0.00,,,0.00,573,WeatherCatV1.21B27,2013-08-14 23:50:00,
2013-08-14 16:55:00,73.2,28.5,29.80,NW,313,10.0,18.0,19,0.00,,,0.00,561,WeatherCatV1.21B27,2013-08-14 23:55:00,
2013-08-14 17:00:00,73.2,28.5,29.80,West,275,10.0,16.0,19,0.00,,,0.00,547,WeatherCatV1.21B27,2013-08-15 00:00:00,
2013-08-14 17:05:00,73.0,28.3,29.80,NW,320,12.0,17.0,19,0.00,,,0.00,527,WeatherCatV1.21B27,2013-08-15 00:05:00,
2013-08-14 17:10:00,73.2,28.5,29.80,WNW,283,12.0,17.0,19,0.00,,,0.00,513,WeatherCatV1.21B27,2013-08-15 00:10:00,
2013-08-14 17:15:00,72.8,26.8,29.80,WNW,303,14.0,24.0,18,0.00,,,0.00,496,WeatherCatV1.21B27,2013-08-15 00:15:00,
2013-08-14 17:20:00,72.7,29.3,29.80,WNW,288,7.0,18.0,20,0.00,,,0.00,483,WeatherCatV1.21B27,2013-08-15 00:20:00,
2013-08-14 17:25:00,72.5,27.9,29.80,WNW,301,13.0,22.0,19,0.00,,,0.00,468,WeatherCatV1.21B27,2013-08-15 00:25:00,
2013-08-14 17:30:00,72.3,29.0,29.81,NW,315,16.0,19.0,20,0.00,,,0.00,448,WeatherCatV1.21B27,2013-08-15 00:30:00,
2013-08-14 17:35:00,72.3,29.0,29.81,NW,312,14.0,16.0,20,0.00,,,0.00,432,WeatherCatV1.21B27,2013-08-15 00:35:00,
2013-08-14 17:40:00,72.5,30.3,29.81,NW,316,20.0,20.0,21,0.00,,,0.00,417,WeatherCatV1.21B27,2013-08-15 00:40:00,
2013-08-14 17:45:00,72.1,28.8,29.81,WNW,283,7.0,16.0,20,0.00,,,0.00,399,WeatherCatV1.21B27,2013-08-15 00:45:00,
2013-08-14 17:50:00,72.3,27.7,29.81,WNW,288,13.0,21.0,19,0.00,,,0.00,383,WeatherCatV1.21B27,2013-08-15 00:50:00,
2013-08-14 17:55:00,72.1,27.6,29.81,WNW,293,10.0,17.0,19,0.00,,,0.00,367,WeatherCatV1.21B27,2013-08-15 00:55:00,
2013-08-14 18:00:00,72.1,30.0,29.81,WNW,283,16.0,19.0,21,0.00,,,0.00,348,WeatherCatV1.21B27,2013-08-15 01:00:00,
2013-08-14 18:05:00,71.8,29.8,29.81,WNW,283,10.0,18.0,21,0.00,,,0.00,332,WeatherCatV1.21B27,2013-08-15 01:05:00,
2013-08-14 18:10:00,71.6,29.6,29.81,North,350,10.0,16.0,21,0.00,,,0.00,316,WeatherCatV1.21B27,2013-08-15 01:10:00,
2013-08-14 18:15:00,71.5,29.5,29.81,WNW,283,9.0,16.0,21,0.00,,,0.00,299,WeatherCatV1.21B27,2013-08-15 01:15:00,
2013-08-14 18:20:00,71.5,30.6,29.81,WSW,239,13.0,13.0,22,0.00,,,0.00,279,WeatherCatV1.21B27,2013-08-15 01:20:00,
2013-08-14 18:25:00,71.3,29.3,29.81,WNW,293,12.0,19.0,21,0.00,,,0.00,265,WeatherCatV1.21B27,2013-08-15 01:25:00,
2013-08-14 18:30:00,70.8,30.1,29.81,WNW,301,21.0,21.0,22,0.00,,,0.00,248,WeatherCatV1.21B27,2013-08-15 01:30:00,
2013-08-14 18:36:00,70.1,28.4,29.81,NW,310,15.0,23.0,21,0.00,,,0.00,229,WeatherCatV1.21B27,2013-08-15 01:36:00,
2013-08-14 18:42:00,70.1,28.4,29.81,WNW,293,16.0,19.0,21,0.00,,,0.00,207,WeatherCatV1.21B27,2013-08-15 01:42:00,
2013-08-14 18:47:00,69.6,30.2,29.82,WNW,297,15.0,15.0,23,0.00,,,0.00,190,WeatherCatV1.21B27,2013-08-15 01:47:00,
2013-08-14 18:52:00,69.4,28.9,29.82,WNW,297,15.0,19.0,22,0.00,,,0.00,172,WeatherCatV1.21B27,2013-08-15 01:52:00,
2013-08-14 18:57:00,69.3,28.8,29.82,NW,307,14.0,18.0,22,0.00,,,0.00,156,WeatherCatV1.21B27,2013-08-15 01:57:00,
2013-08-14 19:02:00,69.1,29.7,29.83,NW,304,16.0,18.0,23,0.00,,,0.00,141,WeatherCatV1.21B27,2013-08-15 02:02:00,
2013-08-14 19:08:00,68.9,29.6,29.83,WSW,238,11.0,17.0,23,0.00,,,0.00,121,WeatherCatV1.21B27,2013-08-15 02:08:00,
2013-08-14 19:13:00,68.8,29.5,29.83,WNW,288,12.0,18.0,23,0.00,,,0.00,105,WeatherCatV1.21B27,2013-08-15 02:13:00,
2013-08-14 19:18:00,68.4,30.2,29.81,WNW,288,14.0,16.0,24,0.00,,,0.00,91,WeatherCatV1.21B27,2013-08-15 02:18:00,
2013-08-14 19:23:00,68.1,31.0,29.81,WNW,299,10.0,15.0,25,0.00,,,0.00,79,WeatherCatV1.21B27,2013-08-15 02:23:00,
2013-08-14 19:28:00,67.8,30.7,29.81,WNW,288,10.0,18.0,25,0.00,,,0.00,67,WeatherCatV1.21B27,2013-08-15 02:28:00,
2013-08-14 19:33:00,67.4,31.3,29.83,WSW,256,11.0,16.0,26,0.00,,,0.00,53,WeatherCatV1.21B27,2013-08-15 02:33:00,
2013-08-14 19:38:00,66.9,30.9,29.83,NW,320,7.0,16.0,26,0.00,,,0.00,39,WeatherCatV1.21B27,2013-08-15 02:38:00,
2013-08-14 19:43:00,66.6,31.6,29.83,WNW,293,15.0,15.0,27,0.00,,,0.00,28,WeatherCatV1.21B27,2013-08-15 02:43:00,
2013-08-14 19:48:00,66.3,32.2,29.84,WNW,288,6.0,11.0,28,0.00,,,0.00,19,WeatherCatV1.21B27,2013-08-15 02:48:00,
2013-08-14 19:53:00,66.0,32.8,29.84,NW,310,11.0,17.0,29,0.00,,,0.00,7,WeatherCatV1.21B27,2013-08-15 02:53:00,
2013-08-14 19:58:00,65.3,33.9,29.84,NW,324,5.0,19.0,31,0.00,,,0.00,5,WeatherCatV1.21B27,2013-08-15 02:58:00,
2013-08-14 20:03:00,64.8,33.5,29.85,NW,312,10.0,19.0,31,0.00,,,0.00,0,WeatherCatV1.21B27,2013-08-15 03:03:00,
2013-08-14 20:08:00,64.5,34.0,29.85,NW,308,14.0,22.0,32,0.00,,,0.00,0,WeatherCatV1.21B27,2013-08-15 03:08:00,
2013-08-14 20:13:00,64.0,35.1,29.85,WNW,288,11.0,19.0,34,0.00,,,0.00,0,WeatherCatV1.21B27,2013-08-15 03:13:00,
2013-08-14 20:18:00,63.7,34.8,29.83,WNW,283,10.0,18.0,34,0.00,,,0.00,0,WeatherCatV1.21B27,2013-08-15 03:18:00,
2013-08-14 20:23:00,63.5,35.4,29.83,WNW,303,12.0,15.0,35,0.00,,,0.00,0,WeatherCatV1.21B27,2013-08-15 03:23:00,
2013-08-14 20:28:00,63.2,35.1,29.83,WNW,297,18.0,18.0,35,0.00,,,0.00,0,WeatherCatV1.21B27,2013-08-15 03:28:00,
2013-08-14 20:33:00,63.1,34.3,29.83,NW,312,13.0,16.0,34,0.00,,,0.00,0,WeatherCatV1.21B27,2013-08-15 03:33:00,
2013-08-14 20:38:00,62.9,35.5,29.83,West,272,8.0,16.0,36,0.00,,,0.00,0,WeatherCatV1.21B27,2013-08-15 03:38:00,
2013-08-14 20:43:00,62.7,35.4,29.83,WNW,293,12.0,14.0,36,0.00,,,0.00,0,WeatherCatV1.21B27,2013-08-15 03:43:00,
2013-08-14 20:48:00,62.4,34.4,29.83,WNW,293,14.0,18.0,35,0.00,,,0.00,0,WeatherCatV1.21B27,2013-08-15 03:48:00,
2013-08-14 20:53:00,62.4,35.1,29.83,NW,320,6.0,15.0,36,0.00,,,0.00,0,WeatherCatV1.21B27,2013-08-15 03:53:00,
2013-08-14 20:58:00,62.1,34.8,29.83,WNW,283,11.0,14.0,36,0.00,,,0.00,0,WeatherCatV1.21B27,2013-08-15 03:58:00,
2013-08-14 21:01:00,62.1,35.5,29.85,WSW,254,13.0,14.0,37,0.00,,,0.00,0,WeatherCatV1.21B27,2013-08-15 04:01:00,
2013-08-14 21:02:00,62.1,35.5,29.85,WNW,283,10.0,14.0,37,0.00,,,0.00,0,WeatherCatV1.21B27,2013-08-15 04:02:00,
2013-08-14 21:03:00,62.0,34.7,29.85,WNW,293,10.0,14.0,36,0.00,,,0.00,0,WeatherCatV1.21B27,2013-08-15 04:03:00,
2013-08-14 21:04:00,62.0,35.4,29.85,WSW,253,11.0,15.0,37,0.00,,,0.00,0,WeatherCatV1.21B27,2013-08-15 04:04:00,
2013-08-14 21:09:00,61.8,35.2,29.85,WNW,300,6.0,15.0,37,0.00,,,0.00,0,WeatherCatV1.21B27,2013-08-15 04:09:00,
2013-08-14 21:10:00,61.8,35.2,29.85,NW,308,10.0,15.0,37,0.00,,,0.00,0,WeatherCatV1.21B27,2013-08-15 04:10:00,
2013-08-14 21:15:00,61.8,34.6,29.83,West,279,6.0,14.0,36,0.00,,,0.00,0,WeatherCatV1.21B27,2013-08-15 04:15:00,
2013-08-14 21:20:00,61.5,36.3,29.83,WNW,283,11.0,11.0,39,0.00,,,0.00,0,WeatherCatV1.21B27,2013-08-15 04:20:00,
2013-08-14 21:25:00,61.0,35.9,29.83,NW,311,6.0,11.0,39,0.00,,,0.00,0,WeatherCatV1.21B27,2013-08-15 04:25:00,
2013-08-14 21:30:00,60.7,36.2,29.84,WNW,293,5.0,9.0,40,0.00,,,0.00,0,WeatherCatV1.21B27,2013-08-15 04:30:00,
2013-08-14 21:35:00,60.2,36.4,29.84,WNW,288,6.0,9.0,41,0.00,,,0.00,0,WeatherCatV1.21B27,2013-08-15 04:35:00,
2013-08-14 21:40:00,59.8,36.0,29.84,WNW,303,6.0,10.0,41,0.00,,,0.00,0,WeatherCatV1.21B27,2013-08-15 04:40:00,
2013-08-14 21:45:00,59.6,35.9,29.84,WNW,288,5.0,9.0,41,0.00,,,0.00,0,WeatherCatV1.21B27,2013-08-15 04:45:00,
2013-08-14 21:50:00,59.5,35.2,29.84,WNW,293,6.0,10.0,40,0.00,,,0.00,0,WeatherCatV1.21B27,2013-08-15 04:50:00,
2013-08-14 21:55:00,59.3,35.0,29.84,WNW,298,6.0,9.0,40,0.00,,,0.00,0,WeatherCatV1.21B27,2013-08-15 04:55:00,
2013-08-14 22:00:00,59.3,33.7,29.85,NW,305,5.0,10.0,38,0.00,,,0.00,0,WeatherCatV1.21B27,2013-08-15 05:00:00,
2013-08-14 22:05:00,59.3,33.7,29.85,WNW,293,6.0,10.0,38,0.00,,,0.00,0,WeatherCatV1.21B27,2013-08-15 05:05:00,
2013-08-14 22:10:00,59.3,33.7,29.85,WNW,283,6.0,9.0,38,0.00,,,0.00,0,WeatherCatV1.21B27,2013-08-15 05:10:00,
2013-08-14 22:15:00,59.3,33.7,29.78,WNW,293,7.0,8.0,38,0.00,,,0.00,0,WeatherCatV1.21B27,2013-08-15 05:15:00,
2013-08-14 22:20:00,59.3,33.7,29.78,WNW,293,5.0,9.0,38,0.00,,,0.00,0,WeatherCatV1.21B27,2013-08-15 05:20:00,
2013-08-14 22:25:00,59.3,33.7,29.78,NW,304,6.0,11.0,38,0.00,,,0.00,0,WeatherCatV1.21B27,2013-08-15 05:25:00,
2013-08-14 22:30:00,59.5,33.9,29.78,NW,312,6.0,9.0,38,0.00,,,0.00,0,WeatherCatV1.21B27,2013-08-15 05:30:00,
2013-08-14 22:35:00,59.5,33.2,29.78,WNW,301,7.0,10.0,37,0.00,,,0.00,0,WeatherCatV1.21B27,2013-08-15 05:35:00,
2013-08-14 22:40:00,59.5,33.2,29.78,WNW,293,9.0,10.0,37,0.00,,,0.00,0,WeatherCatV1.21B27,2013-08-15 05:40:00,
2013-08-14 22:45:00,59.5,33.2,29.76,WNW,301,6.0,10.0,37,0.00,,,0.00,0,WeatherCatV1.21B27,2013-08-15 05:45:00,
2013-08-14 22:50:00,59.6,32.6,29.76,WNW,293,10.0,10.0,36,0.00,,,0.00,0,WeatherCatV1.21B27,2013-08-15 05:50:00,
2013-08-14 22:55:00,59.6,33.3,29.76,WNW,293,7.0,11.0,37,0.00,,,0.00,0,WeatherCatV1.21B27,2013-08-15 05:55:00,
2013-08-14 23:00:00,59.5,32.5,29.77,WNW,297,9.0,12.0,36,0.00,,,0.00,0,WeatherCatV1.21B27,2013-08-15 06:00:00,
2013-08-14 23:05:00,59.3,33.0,29.77,WNW,299,7.0,10.0,37,0.00,,,0.00,0,WeatherCatV1.21B27,2013-08-15 06:05:00,
2013-08-14 23:10:00,59.2,32.9,29.77,WNW,293,7.0,11.0,37,0.00,,,0.00,0,WeatherCatV1.21B27,2013-08-15 06:10:00,
2013-08-14 23:15:00,59.2,32.3,29.81,WNW,293,10.0,12.0,36,0.00,,,0.00,0,WeatherCatV1.21B27,2013-08-15 06:15:00,
2013-08-14 23:20:00,59.2,32.3,29.81,NW,304,8.0,10.0,36,0.00,,,0.00,0,WeatherCatV1.21B27,2013-08-15 06:20:00,
2013-08-14 23:25:00,59.0,32.8,29.81,WNW,299,7.0,10.0,37,0.00,,,0.00,0,WeatherCatV1.21B27,2013-08-15 06:25:00,
2013-08-14 23:30:00,59.0,32.8,29.81,NW,307,9.0,10.0,37,0.00,,,0.00,0,WeatherCatV1.21B27,2013-08-15 06:30:00,
2013-08-14 23:35:00,58.9,32.7,29.81,NW,305,6.0,9.0,37,0.00,,,0.00,0,WeatherCatV1.21B27,2013-08-15 06:35:00,
2013-08-14 23:40:00,58.7,32.5,29.81,NW,308,7.0,10.0,37,0.00,,,0.00,0,WeatherCatV1.21B27,2013-08-15 06:40:00,
2013-08-14 23:45:00,58.7,32.5,29.81,WNW,297,7.0,10.0,37,0.00,,,0.00,0,WeatherCatV1.21B27,2013-08-15 06:45:00,
2013-08-14 23:50:00,58.7,31.8,29.81,WNW,303,7.0,10.0,36,0.00,,,0.00,0,WeatherCatV1.21B27,2013-08-15 06:50:00,
2013-08-14 23:55:00,58.7,31.8,29.81,NW,324,7.0,11.0,36,0.00,,,0.00,0,WeatherCatV1.21B27,2013-08-15 06:55:00,